createdAt,value
2023-04-08T00:02:30.843Z,98537.41
2023-04-08T00:05:07.064Z,98533.27
2023-04-08T00:07:39.314Z,98529.73
2023-04-08T00:10:12.530Z,98532.46
2023-04-08T00:12:44.759Z,98538.09
2023-04-08T00:15:18.767Z,98537.65
2023-04-08T00:17:51.067Z,98536.04
2023-04-08T00:20:23.725Z,98536.95
2023-04-08T00:22:56.005Z,98536.44
2023-04-08T00:25:30.738Z,98540.21
2023-04-08T00:28:03.153Z,98533.54
2023-04-08T00:30:35.290Z,98540.84
2023-04-08T00:33:08.843Z,98543.48
2023-04-08T00:35:44.118Z,98547.41
2023-04-08T00:38:16.232Z,98550.64
2023-04-08T00:40:48.549Z,98549.84
2023-04-08T00:43:24.057Z,98552.54
2023-04-08T00:45:58.676Z,98554.48
2023-04-08T00:48:31.471Z,98555.94
2023-04-08T00:51:04.130Z,98557.53
2023-04-08T00:53:36.633Z,98559.62
2023-04-08T00:56:09.089Z,98565.30
2023-04-08T00:58:41.582Z,98564.06
2023-04-08T01:01:22.058Z,98574.27
2023-04-08T01:04:09.011Z,98574.61
2023-04-08T01:06:49.496Z,98573.44
2023-04-08T01:09:25.347Z,98576.33
2023-04-08T01:12:00.532Z,98575.86
2023-04-08T01:14:34.534Z,98578.14
2023-04-08T01:17:07.822Z,98580.29
2023-04-08T01:19:42.329Z,98580.98
2023-04-08T01:22:24.494Z,98582.63
2023-04-08T01:25:02.463Z,98577.73
2023-04-08T01:27:36.286Z,98576.40
2023-04-08T01:30:12.358Z,98576.52
2023-04-08T01:32:51.091Z,98575.09
2023-04-08T01:35:24.019Z,98579.30
2023-04-08T01:37:57.382Z,98579.30
2023-04-08T01:40:33.651Z,98581.78
2023-04-08T01:43:08.234Z,98578.85
2023-04-08T01:45:40.592Z,98580.50
2023-04-08T01:48:13.976Z,98582.02
2023-04-08T01:50:47.232Z,98576.34
2023-04-08T01:53:19.699Z,98581.02
2023-04-08T01:55:56.893Z,98580.59
2023-04-08T01:58:34.403Z,98577.95
2023-04-08T02:01:12.305Z,98581.02
2023-04-08T02:03:49.049Z,98584.18
2023-04-08T02:06:23.838Z,98585.09
2023-04-08T02:08:56.375Z,98584.03
2023-04-08T02:11:31.777Z,98587.80
2023-04-08T02:14:04.012Z,98586.92
2023-04-08T02:16:42.731Z,98581.52
2023-04-08T02:19:21.743Z,98583.15
2023-04-08T02:22:00.824Z,98584.55
2023-04-08T02:24:35.386Z,98589.08
2023-04-08T02:27:09.819Z,98588.88
2023-04-08T02:29:43.883Z,98590.37
2023-04-08T02:32:19.873Z,98593.89
2023-04-08T02:34:52.481Z,98590.67
2023-04-08T02:37:29.283Z,98590.85
2023-04-08T02:40:01.827Z,98589.92
2023-04-08T02:42:34.628Z,98586.99
2023-04-08T02:45:08.464Z,98591.88
2023-04-08T02:47:40.691Z,98595.95
2023-04-08T02:50:14.140Z,98594.52
2023-04-08T02:52:48.231Z,98595.36
2023-04-08T02:55:21.120Z,98594.92
2023-04-08T02:57:53.439Z,98599.97
2023-04-08T03:00:29.383Z,98602.08
2023-04-08T03:03:02.208Z,98607.59
2023-04-08T03:05:38.048Z,98606.17
2023-04-08T03:08:10.356Z,98607.97
2023-04-08T03:10:50.256Z,98610.27
2023-04-08T03:13:25.901Z,98605.11
2023-04-08T03:16:05.902Z,98604.71
2023-04-08T03:18:40.639Z,98605.06
2023-04-08T03:21:12.881Z,98605.86
2023-04-08T03:23:46.056Z,98610.05
2023-04-08T03:26:21.697Z,98610.06
2023-04-08T03:29:00.618Z,98611.17
2023-04-08T03:31:35.167Z,98610.91
2023-04-08T03:34:07.719Z,98611.67
2023-04-08T03:36:39.875Z,98611.59
2023-04-08T03:39:12.066Z,98615.80
2023-04-08T03:41:44.198Z,98619.91
2023-04-08T03:44:16.311Z,98621.80
2023-04-08T03:46:48.425Z,98619.64
2023-04-08T03:49:23.990Z,98625.32
2023-04-08T03:51:56.149Z,98627.82
2023-04-08T03:54:28.381Z,98627.81
2023-04-08T03:57:06.217Z,98629.52
2023-04-08T03:59:40.522Z,98634.66
2023-04-08T04:02:13.255Z,98634.95
2023-04-08T04:04:45.553Z,98636.73
2023-04-08T04:07:17.749Z,98640.47
2023-04-08T04:09:56.181Z,98643.02
2023-04-08T04:12:28.297Z,98643.46
2023-04-08T04:15:01.047Z,98648.77
2023-04-08T04:17:36.272Z,98650.45
2023-04-08T04:20:12.835Z,98654.04
2023-04-08T04:22:45.423Z,98655.66
2023-04-08T04:25:17.665Z,98655.96
2023-04-08T04:27:50.250Z,98660.33
2023-04-08T04:30:22.803Z,98658.74
2023-04-08T04:32:54.996Z,98663.77
2023-04-08T04:35:27.749Z,98669.95
2023-04-08T04:38:00.581Z,98672.66
2023-04-08T04:40:32.857Z,98676.64
2023-04-08T04:43:05.021Z,98677.19
2023-04-08T04:45:38.470Z,98682.41
2023-04-08T04:48:10.771Z,98684.88
2023-04-08T04:50:42.980Z,98684.04
2023-04-08T04:53:15.180Z,98685.08
2023-04-08T04:55:47.235Z,98693.20
2023-04-08T04:58:19.854Z,98696.37
2023-04-08T05:00:52.111Z,98696.43
2023-04-08T05:03:29.940Z,98698.75
2023-04-08T05:06:02.175Z,98699.83
2023-04-08T05:08:34.273Z,98707.52
2023-04-08T05:11:10.480Z,98708.51
2023-04-08T05:13:42.616Z,98711.98
2023-04-08T05:16:14.965Z,98709.91
2023-04-08T05:18:47.553Z,98715.73
2023-04-08T05:21:22.364Z,98720.62
2023-04-08T05:23:54.642Z,98723.41
2023-04-08T05:26:26.736Z,98726.98
2023-04-08T05:28:58.957Z,98729.28
2023-04-08T05:31:31.921Z,98726.30
2023-04-08T05:34:03.991Z,98733.71
2023-04-08T05:36:39.115Z,98733.97
2023-04-08T05:39:11.332Z,98734.92
2023-04-08T05:41:43.454Z,98733.56
2023-04-08T05:44:15.824Z,98732.73
2023-04-08T05:46:48.070Z,98736.14
2023-04-08T05:49:20.620Z,98735.30
2023-04-08T05:51:56.240Z,98743.58
2023-04-08T05:54:29.098Z,98742.86
2023-04-08T05:57:01.864Z,98746.61
2023-04-08T05:59:34.148Z,98745.46
2023-04-08T06:02:06.557Z,98747.80
2023-04-08T06:04:38.979Z,98750.85
2023-04-08T06:07:11.260Z,98755.29
2023-04-08T06:09:45.286Z,98756.39
2023-04-08T06:12:23.548Z,98757.31
2023-04-08T06:14:58.273Z,98758.83
2023-04-08T06:17:30.366Z,98757.65
2023-04-08T06:20:04.434Z,98762.63
2023-04-08T06:22:37.339Z,98762.58
2023-04-08T06:25:10.355Z,98763.61
2023-04-08T06:27:42.555Z,98769.86
2023-04-08T06:30:16.686Z,98772.04
2023-04-08T06:32:48.852Z,98777.98
2023-04-08T06:35:20.949Z,98778.24
2023-04-08T06:37:53.822Z,98782.10
2023-04-08T06:40:25.944Z,98782.66
2023-04-08T06:42:58.508Z,98784.34
2023-04-08T06:45:38.846Z,98788.17
2023-04-08T06:48:12.169Z,98794.39
2023-04-08T06:50:45.404Z,98792.11
2023-04-08T06:53:17.546Z,98793.04
2023-04-08T06:55:49.616Z,98793.24
2023-04-08T06:58:38.685Z,98794.08
2023-04-08T07:01:11.371Z,98800.56
2023-04-08T07:03:43.534Z,98803.64
2023-04-08T07:06:16.176Z,98802.38
2023-04-08T07:08:48.447Z,98804.73
2023-04-08T07:11:22.132Z,98808.52
2023-04-08T07:13:54.265Z,98806.94
2023-04-08T07:16:26.408Z,98809.34
2023-04-08T07:18:58.546Z,98811.77
2023-04-08T07:21:31.448Z,98808.73
2023-04-08T07:24:03.471Z,98813.80
2023-04-08T07:26:35.857Z,98814.41
2023-04-08T07:29:07.968Z,98816.17
2023-04-08T07:31:39.982Z,98819.01
2023-04-08T07:34:12.353Z,98820.80
2023-04-08T07:36:44.393Z,98818.45
2023-04-08T07:39:16.407Z,98822.99
2023-04-08T07:41:48.405Z,98828.85
2023-04-08T07:44:23.485Z,98830.11
2023-04-08T07:46:55.764Z,98833.55
2023-04-08T07:49:27.813Z,98830.62
2023-04-08T07:52:00.167Z,98830.88
2023-04-08T07:54:34.580Z,98830.95
2023-04-08T07:57:06.891Z,98825.59
2023-04-08T07:59:39.573Z,98828.98
2023-04-08T08:02:11.853Z,98830.64
2023-04-08T08:04:44.186Z,98839.65
2023-04-08T08:07:16.734Z,98843.15
2023-04-08T08:09:50.843Z,98839.23
2023-04-08T08:12:22.933Z,98839.09
2023-04-08T08:14:59.108Z,98842.27
2023-04-08T08:17:33.987Z,98835.98
2023-04-08T08:20:10.549Z,98826.58
2023-04-08T08:22:54.607Z,98842.72
2023-04-08T08:25:30.048Z,98850.92
2023-04-08T08:28:02.148Z,98848.38
2023-04-08T08:30:34.559Z,98845.30
2023-04-08T08:33:06.690Z,98844.58
2023-04-08T08:35:39.241Z,98848.62
2023-04-08T08:38:11.216Z,98844.83
2023-04-08T08:40:43.722Z,98845.91
2023-04-08T08:43:15.750Z,98831.30
2023-04-08T08:45:50.113Z,98835.90
2023-04-08T08:48:22.356Z,98851.50
2023-04-08T08:50:54.487Z,98849.55
2023-04-08T08:53:35.024Z,98843.17
2023-04-08T08:58:44.901Z,98844.95
2023-04-08T09:01:34.000Z,98838.45
2023-04-08T09:04:16.932Z,98847.63
2023-04-08T09:06:51.868Z,98847.60
2023-04-08T09:09:24.372Z,98843.52
2023-04-08T09:12:06.322Z,98842.77
2023-04-08T09:14:38.410Z,98858.63
2023-04-08T09:17:12.467Z,98862.08
2023-04-08T09:20:10.013Z,98874.72
2023-04-08T09:22:59.979Z,98877.52
2023-04-08T09:25:34.108Z,98872.90
2023-04-08T09:28:06.429Z,98872.91
2023-04-08T09:30:38.982Z,98878.63
2023-04-08T09:33:11.854Z,98876.07
2023-04-08T09:35:46.830Z,98882.82
2023-04-08T09:38:19.357Z,98882.50
2023-04-08T09:40:52.212Z,98876.72
2023-04-08T09:43:26.419Z,98853.42
2023-04-08T09:46:00.751Z,98844.08
2023-04-08T09:48:41.347Z,98837.58
2023-04-08T09:51:13.826Z,98842.45
2023-04-08T09:53:51.620Z,98860.42
2023-04-08T09:56:28.299Z,98864.77
2023-04-08T09:59:05.310Z,98853.08
2023-04-08T10:01:43.150Z,98867.11
2023-04-08T10:04:20.981Z,98856.08
2023-04-08T10:06:58.772Z,98858.83
2023-04-08T10:09:32.802Z,98866.41
2023-04-08T10:12:06.928Z,98852.56
2023-04-08T10:14:40.311Z,98858.02
2023-04-08T10:17:28.949Z,98844.20
2023-04-08T10:20:01.150Z,98862.09
2023-04-08T10:22:50.845Z,98870.40
2023-04-08T10:25:36.123Z,98862.19
2023-04-08T10:28:27.718Z,98866.35
2023-04-08T10:31:00.562Z,98870.65
2023-04-08T10:33:47.649Z,98859.49
2023-04-08T10:36:21.190Z,98866.34
2023-04-08T10:38:53.349Z,98862.73
2023-04-08T10:41:29.629Z,98866.39
2023-04-08T10:44:04.379Z,98863.36
2023-04-08T10:46:41.789Z,98866.45
2023-04-08T10:49:13.830Z,98862.90
2023-04-08T10:51:46.952Z,98853.83
2023-04-08T10:54:19.788Z,98828.98
2023-04-08T10:56:53.638Z,98829.33
2023-04-08T10:59:33.109Z,98837.09
2023-04-08T11:02:05.584Z,98846.48
2023-04-08T11:04:44.762Z,98843.23
2023-04-08T11:07:17.613Z,98844.34
2023-04-08T11:09:49.828Z,98855.58
2023-04-08T11:12:23.513Z,98850.46
2023-04-08T11:14:55.567Z,98852.54
2023-04-08T11:17:28.101Z,98851.66
2023-04-08T11:20:03.141Z,98847.69
2023-04-08T11:22:35.906Z,98842.06
2023-04-08T11:25:10.524Z,98856.64
2023-04-08T11:27:42.773Z,98852.41
2023-04-08T11:30:15.633Z,98847.05
2023-04-08T11:32:48.133Z,98850.73
2023-04-08T11:35:22.500Z,98848.64
2023-04-08T11:37:55.919Z,98858.10
2023-04-08T11:40:28.755Z,98848.55
2023-04-08T11:43:01.263Z,98852.05
2023-04-08T11:45:39.345Z,98856.59
2023-04-08T11:48:16.532Z,98864.84
2023-04-08T11:50:50.864Z,98856.64
2023-04-08T11:53:26.266Z,98862.79
2023-04-08T11:55:58.302Z,98862.45
2023-04-08T11:58:30.757Z,98862.61
2023-04-08T12:01:03.230Z,98851.93
2023-04-08T12:03:35.965Z,98847.61
2023-04-08T12:06:09.649Z,98848.56
2023-04-08T12:08:42.011Z,98847.84
2023-04-08T12:11:19.977Z,98853.06
2023-04-08T12:13:52.997Z,98858.43
2023-04-08T12:16:25.592Z,98864.61
2023-04-08T12:18:58.781Z,98863.08
2023-04-08T12:21:32.287Z,98866.06
2023-04-08T12:24:05.106Z,98856.88
